createdAt,value
2023-02-01T00:00:15.660Z,72.93
2023-02-01T00:02:43.587Z,74.90
2023-02-01T00:05:13.263Z,73.66
2023-02-01T00:07:41.253Z,73.87
2023-02-01T00:10:10.571Z,73.55
2023-02-01T00:12:38.499Z,73.34
2023-02-01T00:15:07.263Z,71.79
2023-02-01T00:17:35.102Z,71.58
2023-02-01T00:20:03.284Z,72.31
2023-02-01T00:22:32.574Z,71.27
2023-02-01T00:25:00.422Z,72.23
2023-02-01T00:27:28.332Z,71.35
2023-02-01T00:29:56.778Z,70.54
2023-02-01T00:32:24.738Z,71.67
2023-02-01T00:34:52.615Z,70.83
2023-02-01T00:37:20.520Z,70.55
2023-02-01T00:39:51.341Z,70.92
2023-02-01T00:42:19.277Z,70.05
2023-02-01T00:44:47.884Z,70.95
2023-02-01T00:47:15.778Z,72.41
2023-02-01T00:49:43.680Z,70.53
2023-02-01T00:52:11.511Z,70.97
2023-02-01T00:54:39.491Z,71.59
2023-02-01T00:57:08.986Z,71.14
2023-02-01T00:59:36.875Z,72.60
2023-02-01T01:02:04.791Z,73.17
2023-02-01T01:04:32.679Z,72.57
2023-02-01T01:07:00.566Z,72.70
2023-02-01T01:09:28.440Z,72.53
2023-02-01T01:11:56.357Z,73.44
2023-02-01T01:14:25.670Z,73.38
2023-02-01T01:16:53.585Z,73.64
2023-02-01T01:19:21.425Z,72.51
2023-02-01T01:21:49.324Z,73.17
2023-02-01T01:24:17.430Z,74.09
2023-02-01T01:26:45.369Z,73.48
2023-02-01T01:29:13.322Z,73.28
2023-02-01T01:31:42.661Z,72.79
2023-02-01T01:34:10.827Z,72.58
2023-02-01T01:36:38.787Z,72.83
2023-02-01T01:39:06.993Z,71.63
2023-02-01T01:41:34.867Z,72.35
2023-02-01T01:44:55.256Z,71.57
2023-02-01T01:47:25.394Z,71.64
2023-02-01T01:49:53.597Z,71.57
2023-02-01T01:52:22.629Z,71.43
2023-02-01T01:54:53.811Z,71.00
2023-02-01T01:57:29.145Z,71.44
2023-02-01T02:00:02.829Z,71.26
2023-02-01T02:02:45.184Z,70.95
2023-02-01T02:05:14.627Z,71.10
2023-02-01T02:07:45.407Z,71.11
2023-02-01T02:10:14.497Z,70.33
2023-02-01T02:12:45.642Z,70.88
2023-02-01T02:15:16.361Z,70.33
2023-02-01T02:17:55.335Z,71.03
2023-02-01T02:21:11.710Z,70.52
2023-02-01T02:24:04.503Z,70.64
2023-02-01T02:26:59.804Z,70.33
2023-02-01T02:30:06.674Z,70.34
2023-02-01T02:32:57.164Z,70.17
2023-02-01T02:35:34.943Z,70.26
2023-02-01T02:38:13.708Z,70.67
2023-02-01T02:40:51.300Z,70.54
2023-02-01T02:43:41.116Z,70.20
2023-02-01T02:46:30.979Z,71.00
2023-02-01T02:49:07.377Z,70.66
2023-02-01T02:52:00.966Z,69.22
2023-02-01T02:54:49.713Z,70.52
2023-02-01T02:57:40.808Z,69.54
2023-02-01T03:00:30.128Z,70.03
2023-02-01T03:03:15.487Z,71.52
2023-02-01T03:05:46.562Z,70.11
2023-02-01T03:08:18.544Z,70.01
2023-02-01T03:10:53.494Z,70.26
2023-02-01T03:13:32.114Z,69.24
2023-02-01T03:16:06.606Z,69.26
2023-02-01T03:18:40.375Z,70.33
2023-02-01T03:21:11.724Z,69.65
2023-02-01T03:23:42.091Z,69.70
2023-02-01T03:26:16.170Z,69.87
2023-02-01T03:28:47.319Z,69.76
2023-02-01T03:31:15.439Z,69.76
2023-02-01T03:33:44.195Z,68.46
2023-02-01T03:36:20.216Z,68.52
2023-02-01T03:38:57.603Z,68.96
2023-02-01T03:41:31.706Z,68.58
2023-02-01T03:44:06.480Z,69.46
2023-02-01T03:46:38.474Z,68.50
2023-02-01T03:49:11.677Z,69.71
2023-02-01T03:51:42.313Z,69.21
2023-02-01T03:54:17.376Z,68.69
2023-02-01T03:56:48.246Z,68.58
2023-02-01T03:59:16.937Z,69.27
2023-02-01T04:01:45.038Z,68.77
2023-02-01T04:04:20.810Z,68.43
2023-02-01T04:06:52.401Z,68.50
2023-02-01T04:09:23.948Z,68.59
2023-02-01T04:11:51.817Z,69.55
2023-02-01T04:14:19.753Z,68.49
2023-02-01T04:16:47.713Z,67.96
2023-02-01T04:19:15.794Z,67.91
2023-02-01T04:21:43.728Z,67.36
2023-02-01T04:24:11.742Z,67.71
2023-02-01T04:26:41.292Z,68.13
2023-02-01T04:29:11.188Z,67.62
2023-02-01T04:31:39.203Z,68.14
2023-02-01T04:34:07.151Z,67.83
2023-02-01T04:36:35.052Z,67.25
2023-02-01T04:39:02.943Z,67.21
2023-02-01T04:41:31.136Z,66.50
2023-02-01T04:44:00.536Z,66.94
2023-02-01T04:46:28.487Z,67.35
2023-02-01T04:48:56.448Z,66.15
2023-02-01T04:51:24.442Z,66.43
2023-02-01T04:53:53.600Z,67.04
2023-02-01T04:56:21.701Z,67.10
2023-02-01T04:58:49.599Z,66.95
2023-02-01T05:01:18.929Z,66.52
2023-02-01T05:03:46.889Z,66.22
2023-02-01T05:06:14.771Z,66.22
2023-02-01T05:08:42.686Z,66.30
2023-02-01T05:11:31.045Z,66.77
2023-02-01T05:13:58.142Z,66.76
2023-02-01T05:16:28.189Z,66.49
2023-02-01T05:18:56.438Z,66.10
2023-02-01T05:21:24.492Z,67.17
2023-02-01T05:24:18.294Z,67.09
2023-02-01T05:26:46.103Z,65.81
2023-02-01T05:29:14.613Z,66.44
2023-02-01T05:31:45.916Z,66.46
2023-02-01T05:34:14.265Z,66.39
2023-02-01T05:36:42.155Z,66.04
2023-02-01T05:39:11.158Z,65.42
2023-02-01T05:41:39.402Z,66.17
2023-02-01T05:44:08.221Z,65.99
2023-02-01T05:46:37.206Z,65.62
2023-02-01T05:49:06.578Z,66.33
2023-02-01T05:51:34.515Z,65.82
2023-02-01T05:54:02.421Z,66.48
2023-02-01T05:56:30.442Z,65.66
2023-02-01T05:58:58.308Z,66.38
2023-02-01T06:01:26.180Z,65.99
2023-02-01T06:03:54.057Z,65.54
2023-02-01T06:06:23.342Z,66.07
2023-02-01T06:08:51.230Z,66.37
2023-02-01T06:11:31.827Z,66.53
2023-02-01T06:14:00.600Z,67.07
2023-02-01T06:16:28.626Z,66.98
2023-02-01T06:18:56.556Z,68.96
2023-02-01T06:21:25.851Z,68.17
2023-02-01T06:23:54.279Z,69.85
2023-02-01T06:26:22.808Z,70.35
2023-02-01T06:28:50.693Z,69.87
2023-02-01T06:31:18.814Z,70.76
2023-02-01T06:33:47.869Z,69.72
2023-02-01T06:36:16.922Z,69.39
2023-02-01T06:38:46.538Z,69.07
2023-02-01T06:41:14.426Z,70.15
2023-02-01T06:43:42.390Z,69.66
2023-02-01T06:46:13.918Z,69.87
2023-02-01T06:48:42.224Z,70.18
2023-02-01T06:51:21.643Z,69.77
2023-02-01T06:53:51.364Z,69.45
2023-02-01T06:56:19.293Z,68.35
2023-02-01T06:58:47.564Z,68.17
2023-02-01T07:01:16.038Z,67.97
2023-02-01T07:03:44.357Z,66.30
2023-02-01T07:06:12.268Z,66.53
2023-02-01T07:08:40.167Z,66.27
2023-02-01T07:11:11.746Z,66.12
2023-02-01T07:13:40.071Z,67.03
2023-02-01T07:16:11.421Z,66.44
2023-02-01T07:18:39.378Z,66.53
2023-02-01T07:21:07.713Z,67.55
2023-02-01T07:23:35.771Z,67.70
2023-02-01T07:26:05.596Z,67.87
2023-02-01T07:28:38.603Z,68.39
2023-02-01T07:31:07.294Z,67.81
2023-02-01T07:33:35.675Z,67.66
2023-02-01T07:36:06.087Z,68.01
2023-02-01T07:38:34.047Z,68.21
2023-02-01T07:41:02.074Z,67.86
2023-02-01T07:43:30.994Z,69.32
2023-02-01T07:46:00.251Z,70.79
2023-02-01T07:48:29.216Z,71.12
2023-02-01T07:51:01.447Z,72.19
2023-02-01T07:53:31.413Z,73.78
2023-02-01T07:55:59.798Z,74.21
2023-02-01T07:58:28.421Z,74.11
2023-02-01T08:01:14.152Z,74.18
2023-02-01T08:03:43.576Z,74.57
2023-02-01T08:06:11.552Z,76.18
2023-02-01T08:08:39.914Z,76.26
2023-02-01T08:11:09.001Z,76.70
2023-02-01T08:13:37.242Z,78.06
2023-02-01T08:16:07.277Z,77.50
2023-02-01T08:18:36.129Z,76.58
2023-02-01T08:21:10.892Z,78.64
2023-02-01T08:23:39.906Z,77.62
2023-02-01T08:26:10.525Z,78.26
2023-02-01T08:28:39.099Z,78.50
2023-02-01T08:31:08.952Z,77.67
2023-02-01T08:33:38.036Z,77.79
2023-02-01T08:36:09.036Z,77.84
2023-02-01T08:38:37.619Z,78.23
2023-02-01T08:41:09.640Z,78.78
2023-02-01T08:43:37.999Z,78.68
2023-02-01T08:46:06.330Z,78.88
2023-02-01T08:48:35.121Z,79.31
2023-02-01T08:51:04.234Z,79.97
2023-02-01T08:53:33.565Z,80.05
2023-02-01T08:56:01.703Z,79.75
2023-02-01T08:58:29.787Z,79.72
2023-02-01T09:00:57.707Z,80.26
2023-02-01T09:03:25.690Z,80.06
2023-02-01T09:05:54.448Z,80.00
2023-02-01T09:08:22.860Z,80.13
2023-02-01T09:10:52.175Z,80.14
2023-02-01T09:13:20.033Z,78.64
2023-02-01T09:15:47.987Z,79.42
2023-02-01T09:18:15.991Z,80.14
2023-02-01T09:20:43.942Z,78.55
2023-02-01T09:23:11.898Z,79.90
2023-02-01T09:25:40.281Z,79.09
2023-02-01T09:28:10.114Z,78.17
2023-02-01T09:30:38.643Z,79.14
2023-02-01T09:33:06.960Z,78.67
2023-02-01T09:35:34.805Z,77.97
2023-02-01T09:38:02.899Z,78.07
2023-02-01T09:40:30.734Z,77.90
2023-02-01T09:43:13.714Z,77.76
2023-02-01T09:45:50.670Z,78.34
2023-02-01T09:48:24.228Z,78.11
2023-02-01T09:50:56.169Z,78.13
2023-02-01T09:53:29.970Z,77.40
2023-02-01T09:56:04.727Z,77.58
2023-02-01T09:58:38.296Z,78.19
2023-02-01T10:01:13.627Z,76.89
2023-02-01T10:03:41.625Z,76.29
2023-02-01T10:06:32.606Z,77.36
2023-02-01T10:09:17.058Z,78.37
2023-02-01T10:11:59.132Z,77.70
2023-02-01T10:14:49.432Z,76.40
2023-02-01T10:17:27.844Z,77.99
2023-02-01T10:20:07.304Z,78.47
2023-02-01T10:23:05.235Z,77.47
2023-02-01T10:25:38.949Z,76.94
2023-02-01T10:28:06.920Z,77.54
2023-02-01T10:30:43.637Z,77.44
2023-02-01T10:33:18.297Z,76.89
2023-02-01T10:35:47.855Z,76.00
2023-02-01T10:38:26.468Z,75.65
2023-02-01T10:40:55.404Z,76.57
2023-02-01T10:43:23.742Z,75.50
2023-02-01T10:45:53.438Z,75.42
2023-02-01T10:48:21.480Z,78.38
2023-02-01T10:50:55.744Z,78.79
2023-02-01T10:53:28.683Z,77.90
2023-02-01T10:55:57.880Z,79.53
2023-02-01T10:58:30.349Z,78.74
2023-02-01T11:01:03.866Z,79.64
2023-02-01T11:03:47.190Z,78.78
2023-02-01T11:06:28.163Z,78.21
2023-02-01T11:08:58.391Z,78.68
2023-02-01T11:11:26.856Z,77.11
2023-02-01T11:13:57.983Z,76.43
2023-02-01T11:16:35.958Z,77.13
2023-02-01T11:19:04.700Z,76.93
2023-02-01T11:21:33.698Z,75.55
2023-02-01T11:24:05.068Z,75.69
2023-02-01T11:26:34.361Z,74.10
2023-02-01T11:29:06.345Z,75.04
2023-02-01T11:31:36.909Z,75.52
2023-02-01T11:34:10.116Z,74.89
2023-02-01T11:36:40.735Z,73.23
2023-02-01T11:39:26.757Z,73.08
2023-02-01T11:42:05.387Z,72.28
2023-02-01T11:44:36.755Z,74.01
2023-02-01T11:47:32.368Z,72.49
2023-02-01T11:50:01.692Z,72.51
2023-02-01T11:52:43.436Z,71.49
2023-02-01T11:55:41.582Z,70.04
2023-02-01T11:58:24.828Z,71.04
2023-02-01T12:01:07.341Z,70.81
2023-02-01T12:04:20.633Z,69.88
2023-02-01T12:06:55.369Z,69.05
2023-02-01T12:10:01.932Z,67.57
2023-02-01T12:12:41.088Z,67.96
2023-02-01T12:15:30.238Z,69.87
2023-02-01T12:18:21.961Z,68.81
2023-02-01T12:21:11.317Z,68.42
2023-02-01T12:24:06.363Z,68.90
2023-02-01T12:26:50.663Z,69.20
2023-02-01T12:29:59.081Z,68.11
2023-02-01T12:32:53.105Z,68.31
2023-02-01T12:35:39.391Z,68.21
2023-02-01T12:38:22.598Z,68.05
2023-02-01T12:41:03.754Z,68.74
2023-02-01T12:43:41.659Z,69.42
2023-02-01T12:46:14.667Z,68.09
2023-02-01T12:48:51.841Z,68.32
2023-02-01T12:51:22.722Z,67.99
2023-02-01T12:53:56.468Z,66.70
2023-02-01T12:56:28.821Z,66.13
2023-02-01T12:59:01.953Z,65.95
2023-02-01T13:01:35.756Z,65.90
2023-02-01T13:04:12.463Z,65.34
2023-02-01T13:06:47.160Z,66.02
2023-02-01T13:09:25.016Z,65.36
2023-02-01T13:11:56.167Z,65.82
2023-02-01T13:14:32.017Z,65.96
2023-02-01T13:17:03.964Z,64.99
2023-02-01T13:19:47.321Z,66.97
2023-02-01T13:22:21.630Z,67.36
2023-02-01T13:24:55.498Z,66.26
2023-02-01T13:27:24.873Z,66.15
2023-02-01T13:29:59.792Z,65.92
2023-02-01T13:33:52.974Z,65.64
2023-02-01T13:36:03.413Z,65.49
2023-02-01T13:39:04.203Z,64.81
2023-02-01T13:41:37.277Z,65.45
2023-02-01T13:44:13.119Z,64.39
2023-02-01T13:46:43.366Z,64.04
2023-02-01T13:49:21.642Z,64.24
2023-02-01T13:51:53.263Z,64.39
2023-02-01T13:54:34.660Z,64.02
2023-02-01T13:57:06.202Z,64.06
2023-02-01T14:00:09.693Z,64.58
2023-02-01T14:03:09.972Z,65.00
2023-02-01T14:06:04.608Z,65.53
2023-02-01T14:08:42.896Z,65.89
2023-02-01T14:11:34.040Z,67.69
2023-02-01T14:14:42.773Z,69.43
2023-02-01T14:17:40.113Z,70.48
2023-02-01T14:20:41.252Z,70.33
2023-02-01T14:23:15.140Z,70.69
2023-02-01T14:25:43.907Z,70.21
2023-02-01T14:28:26.661Z,71.09
2023-02-01T14:30:59.914Z,71.19
2023-02-01T14:33:29.175Z,69.66
2023-02-01T14:36:11.351Z,70.61
2023-02-01T14:38:40.748Z,71.67
2023-02-01T14:41:33.070Z,71.60
2023-02-01T14:44:26.739Z,71.35
2023-02-01T14:47:28.141Z,71.13
2023-02-01T14:50:00.526Z,69.22
2023-02-01T14:52:35.223Z,68.36
2023-02-01T14:55:09.084Z,68.07
2023-02-01T14:57:41.377Z,69.01
2023-02-01T15:00:20.283Z,67.64
2023-02-01T15:02:51.642Z,67.14
2023-02-01T15:05:33.630Z,66.92
2023-02-01T15:08:18.904Z,68.01
2023-02-01T15:10:49.745Z,70.70
2023-02-01T15:13:23.034Z,70.95
2023-02-01T15:16:04.367Z,72.26
2023-02-01T15:18:34.474Z,72.25
2023-02-01T15:21:09.464Z,71.87
2023-02-01T15:23:52.040Z,73.55
2023-02-01T15:26:30.334Z,75.07
2023-02-01T15:28:59.006Z,74.53
2023-02-01T15:31:38.573Z,75.30
2023-02-01T15:34:07.847Z,75.36
2023-02-01T15:36:36.291Z,75.56
2023-02-01T15:39:20.868Z,76.30
2023-02-01T15:41:51.164Z,75.74
2023-02-01T15:44:28.746Z,76.02
2023-02-01T15:46:57.035Z,74.73
2023-02-01T15:49:30.852Z,76.69
2023-02-01T15:52:00.495Z,76.12
2023-02-01T15:54:32.895Z,76.11
2023-02-01T15:57:04.323Z,76.27
2023-02-01T15:59:36.785Z,77.57
2023-02-01T16:02:04.884Z,77.95
2023-02-01T16:04:34.235Z,79.17
2023-02-01T16:07:05.358Z,78.24
2023-02-01T16:09:42.787Z,77.45
2023-02-01T16:12:28.734Z,76.34
2023-02-01T16:14:56.626Z,75.68
2023-02-01T16:17:24.528Z,76.11
2023-02-01T16:19:53.976Z,76.69
2023-02-01T16:22:21.976Z,77.07
2023-02-01T16:24:49.863Z,76.63
2023-02-01T16:27:17.988Z,77.81
2023-02-01T16:29:45.921Z,78.25
2023-02-01T16:32:19.546Z,78.78
2023-02-01T16:34:48.026Z,78.01
2023-02-01T16:37:24.443Z,77.56
2023-02-01T16:39:52.955Z,79.17
2023-02-01T16:42:21.150Z,78.68
2023-02-01T16:44:49.414Z,78.20
2023-02-01T16:47:22.313Z,79.49
2023-02-01T16:49:51.313Z,79.18
2023-02-01T16:52:22.731Z,77.88
2023-02-01T16:54:51.139Z,78.86
2023-02-01T16:57:20.651Z,79.07
2023-02-01T16:59:48.556Z,78.78
2023-02-01T17:02:19.925Z,79.75
2023-02-01T17:04:49.687Z,79.94
2023-02-01T17:07:20.584Z,78.19
2023-02-01T17:09:49.127Z,78.85
2023-02-01T17:12:26.902Z,77.95
2023-02-01T17:14:55.250Z,77.54
2023-02-01T17:17:37.811Z,78.70
2023-02-01T17:20:08.073Z,77.77
2023-02-01T17:22:37.372Z,77.36
2023-02-01T17:25:06.987Z,79.24
2023-02-01T17:27:35.441Z,78.51
2023-02-01T17:30:04.301Z,78.81
2023-02-01T17:32:32.768Z,78.38
2023-02-01T17:35:00.594Z,78.38
2023-02-01T17:37:31.340Z,78.23
2023-02-01T17:40:01.199Z,78.40
2023-02-01T17:42:30.684Z,79.67
2023-02-01T17:45:01.412Z,78.17
2023-02-01T17:47:29.418Z,77.95
2023-02-01T17:49:57.398Z,79.55
2023-02-01T17:52:26.500Z,78.75
2023-02-01T17:54:55.027Z,80.08
2023-02-01T17:57:24.282Z,79.35
2023-02-01T17:59:52.154Z,78.34
2023-02-01T18:02:21.954Z,78.50
2023-02-01T18:04:51.195Z,79.26
2023-02-01T18:07:19.270Z,79.99
2023-02-01T18:09:47.192Z,78.19
2023-02-01T18:12:20.907Z,78.63
2023-02-01T18:14:50.455Z,78.31
2023-02-01T18:17:18.374Z,78.92
2023-02-01T18:19:46.238Z,78.05
2023-02-01T18:22:18.623Z,77.48
2023-02-01T18:24:46.552Z,79.53
2023-02-01T18:27:14.439Z,79.21
2023-02-01T18:29:42.451Z,78.84
2023-02-01T18:32:12.285Z,78.31
2023-02-01T18:34:41.066Z,78.54
2023-02-01T18:37:09.069Z,78.48
2023-02-01T18:39:37.526Z,77.69
2023-02-01T18:42:05.481Z,76.45
2023-02-01T18:44:33.353Z,77.17
2023-02-01T18:47:01.669Z,77.01
2023-02-01T18:49:31.198Z,78.24
2023-02-01T18:52:00.179Z,77.28
2023-02-01T18:54:28.703Z,76.66
2023-02-01T18:56:56.681Z,77.06
2023-02-01T18:59:24.536Z,77.17
2023-02-01T19:01:52.500Z,76.89
2023-02-01T19:04:25.993Z,76.55
2023-02-01T19:06:56.712Z,77.00
2023-02-01T19:09:24.623Z,76.24
2023-02-01T19:11:52.550Z,76.11
2023-02-01T19:14:20.685Z,74.68
2023-02-01T19:16:48.557Z,76.09
2023-02-01T19:19:16.428Z,76.20
2023-02-01T19:21:44.301Z,75.84
2023-02-01T19:24:13.623Z,76.50
2023-02-01T19:26:42.448Z,75.17
2023-02-01T19:29:10.653Z,76.96
2023-02-01T19:31:38.820Z,77.14
2023-02-01T19:34:06.872Z,76.90
2023-02-01T19:36:40.357Z,76.16
2023-02-01T19:39:10.218Z,75.88
2023-02-01T19:41:39.481Z,75.54
2023-02-01T19:44:07.432Z,75.48
2023-02-01T19:46:36.296Z,76.59
2023-02-01T19:49:04.251Z,75.54
2023-02-01T19:51:32.173Z,75.02
2023-02-01T19:54:00.180Z,74.13
2023-02-01T19:56:28.097Z,75.55
2023-02-01T19:58:57.402Z,75.81
2023-02-01T20:01:25.400Z,75.09
2023-02-01T20:03:53.711Z,74.69
2023-02-01T20:06:21.602Z,74.01
2023-02-01T20:08:50.039Z,74.07
2023-02-01T20:11:17.960Z,73.97
2023-02-01T20:13:45.830Z,74.15
2023-02-01T20:16:15.361Z,73.40
2023-02-01T20:18:43.372Z,74.89
2023-02-01T20:21:11.339Z,74.72
2023-02-01T20:23:39.315Z,74.47
2023-02-01T20:26:11.336Z,76.02
2023-02-01T20:28:39.591Z,75.27
2023-02-01T20:31:10.715Z,75.43
2023-02-01T20:33:39.975Z,74.62
2023-02-01T20:36:08.724Z,74.57
2023-02-01T20:38:37.207Z,73.55
2023-02-01T20:41:06.326Z,73.36
2023-02-01T20:43:34.572Z,72.62
2023-02-01T20:46:03.270Z,73.98
2023-02-01T20:48:32.589Z,74.75
2023-02-01T20:51:01.874Z,74.32
2023-02-01T20:53:30.093Z,73.77
2023-02-01T20:55:59.355Z,73.10
2023-02-01T20:58:27.890Z,73.41
2023-02-01T21:00:56.616Z,74.07
2023-02-01T21:03:25.052Z,74.72
2023-02-01T21:05:54.752Z,74.78
2023-02-01T21:08:25.110Z,74.93
2023-02-01T21:10:57.625Z,74.89
2023-02-01T21:13:25.663Z,74.64
2023-02-01T21:15:53.584Z,75.56
2023-02-01T21:18:21.497Z,74.86
2023-02-01T21:20:49.391Z,75.65
2023-02-01T21:23:18.206Z,74.23
2023-02-01T21:25:47.851Z,75.27
2023-02-01T21:28:15.776Z,75.45
2023-02-01T21:30:44.247Z,74.83
2023-02-01T21:33:12.201Z,76.27
2023-02-01T21:35:42.307Z,75.20
2023-02-01T21:38:10.735Z,74.74
2023-02-01T21:40:38.666Z,74.38
2023-02-01T21:43:07.925Z,74.99
2023-02-01T21:45:38.152Z,74.58
2023-02-01T21:48:07.069Z,74.44
2023-02-01T21:50:36.162Z,74.96
2023-02-01T21:53:04.640Z,75.66
2023-02-01T21:55:32.566Z,74.89
2023-02-01T21:58:00.423Z,73.97
2023-02-01T22:00:29.727Z,73.76
2023-02-01T22:02:57.656Z,74.46
2023-02-01T22:05:25.993Z,73.91
2023-02-01T22:07:54.128Z,74.40
2023-02-01T22:10:23.740Z,73.87
2023-02-01T22:12:52.197Z,74.19
2023-02-01T22:15:20.053Z,73.95
2023-02-01T22:17:49.273Z,73.44
2023-02-01T22:20:17.477Z,72.34
2023-02-01T22:22:48.629Z,72.11
2023-02-01T22:25:16.619Z,71.98
2023-02-01T22:28:31.882Z,72.15
2023-02-01T22:30:32.517Z,72.63
2023-02-01T22:33:01.798Z,72.27
2023-02-01T22:35:29.625Z,72.44
2023-02-01T22:37:57.543Z,72.22
2023-02-01T22:40:25.818Z,71.33
2023-02-01T22:42:53.710Z,71.63
2023-02-01T22:45:21.645Z,70.69
2023-02-01T22:47:49.966Z,70.22
2023-02-01T22:50:19.465Z,72.11
2023-02-01T22:52:47.348Z,71.63
2023-02-01T22:55:15.273Z,70.59
2023-02-01T22:57:43.214Z,71.73
2023-02-01T23:00:12.371Z,71.38
2023-02-01T23:02:43.110Z,71.07
2023-02-01T23:05:11.338Z,71.02
2023-02-01T23:07:40.599Z,72.01
2023-02-01T23:10:09.788Z,71.63
2023-02-01T23:12:37.678Z,73.11
2023-02-01T23:15:06.464Z,72.38
2023-02-01T23:17:34.866Z,72.26
2023-02-01T23:20:02.992Z,72.44
2023-02-01T23:22:30.884Z,73.55
2023-02-01T23:25:00.174Z,73.01
2023-02-01T23:27:28.218Z,71.94
2023-02-01T23:29:56.077Z,71.59
2023-02-01T23:32:23.943Z,73.49
2023-02-01T23:34:51.842Z,72.92
2023-02-01T23:37:19.785Z,72.72
2023-02-01T23:39:47.654Z,72.76
2023-02-01T23:42:16.865Z,72.68
2023-02-01T23:44:44.750Z,73.08
2023-02-01T23:47:13.477Z,73.00
2023-02-01T23:49:41.536Z,72.15
2023-02-01T23:52:10.973Z,72.67
2023-02-01T23:54:39.016Z,72.79
2023-02-01T23:57:07.049Z,71.71
2023-02-01T23:59:36.538Z,72.13
